Saint-Elie-D'Orford, Canada
Current Conditions -  °F | °C
As of 6:46 PM on Saturday 25 Oct 2014 (Local Time) from CYSC Reporting Station
Light Rain Light Rain  
Wind Chill: 50°   Ceiling: 4700
Heat Index: 50°   Visibility: 9mi
Dew Point: 45°   Wind: 3mph
Humidity: 82%   Direction: 170°S
Pressure: 29.49"   Gusts: NA
Location:  45.4°N, 72.03°W
Report Text: CYSC 252246Z AUTO 17003KT 9SM -RA SCT039 BKN047 BKN060 OVC082 10/07 A2949 RMK SLP994 DENSITY ALT 800FT
Loading
Personal Weather Stations






























Interactive Weather Map
Tropical Storm Tracking
New forecast layout! Learn more

10-Day Weather Forecast

Advertisements
Track Severe Weather on mobile